createdAt,value
2022-11-20T00:03:55.589Z,0
2022-11-20T00:08:54.790Z,0
2022-11-20T00:13:54.448Z,0
2022-11-20T00:18:52.881Z,0
2022-11-20T00:23:55.561Z,0
2022-11-20T00:28:53.391Z,0
2022-11-20T00:33:52.437Z,0
2022-11-20T00:38:51.285Z,0
2022-11-20T00:43:50.189Z,0
2022-11-20T00:48:49.398Z,0
2022-11-20T00:53:48.739Z,0
2022-11-20T00:58:47.200Z,0
2022-11-20T01:03:46.020Z,0
2022-11-20T01:08:46.560Z,0
2022-11-20T01:13:44.763Z,0
2022-11-20T01:18:44.989Z,0
2022-11-20T01:23:44.381Z,0
2022-11-20T01:28:43.868Z,0
2022-11-20T01:33:43.917Z,0
2022-11-20T01:38:42.664Z,0
2022-11-20T01:43:41.627Z,0
2022-11-20T01:48:41.302Z,0
2022-11-20T01:53:39.966Z,0
2022-11-20T01:58:39.290Z,0
2022-11-20T01:59:59.659Z,0
2022-11-20T02:04:59.268Z,0
2022-11-20T02:10:02.935Z,0
2022-11-20T02:14:59.515Z,0
2022-11-20T02:19:57.934Z,0
2022-11-20T02:24:57.112Z,0
2022-11-20T02:29:55.981Z,0
2022-11-20T02:34:55.415Z,0
2022-11-20T02:39:54.550Z,0
2022-11-20T02:44:54.215Z,0
2022-11-20T02:49:53.337Z,0
2022-11-20T02:54:52.961Z,0
2022-11-20T02:58:56.207Z,0
2022-11-20T03:03:55.284Z,0
2022-11-20T03:08:54.537Z,0
2022-11-20T03:13:54.798Z,0
2022-11-20T03:18:54.063Z,0
2022-11-20T03:23:53.084Z,0
2022-11-20T03:28:51.563Z,0
2022-11-20T03:33:51.161Z,0
2022-11-20T03:38:51.089Z,0
2022-11-20T03:43:48.916Z,0
2022-11-20T03:48:54.330Z,0
2022-11-20T03:53:47.338Z,0
2022-11-20T03:58:46.869Z,0
2022-11-20T04:03:45.072Z,0
2022-11-20T04:08:46.643Z,0
2022-11-20T04:13:43.652Z,0
2022-11-20T04:18:43.371Z,0
2022-11-20T04:23:42.619Z,0
2022-11-20T04:28:42.728Z,0
2022-11-20T04:33:41.344Z,0
2022-11-20T04:38:41.081Z,0
2022-11-20T04:43:40.277Z,0
2022-11-20T04:48:39.489Z,0
2022-11-20T04:53:38.220Z,0
2022-11-20T04:58:37.607Z,0
2022-11-20T04:59:59.475Z,0
2022-11-20T05:04:58.638Z,0
2022-11-20T05:09:56.102Z,0
2022-11-20T05:14:55.986Z,0
2022-11-20T05:19:55.808Z,0
2022-11-20T05:24:54.911Z,0
2022-11-20T05:29:54.495Z,0
2022-11-20T05:34:53.276Z,0
2022-11-20T05:39:52.961Z,0
2022-11-20T05:44:52.824Z,0
2022-11-20T05:49:51.670Z,0
2022-11-20T05:54:51.851Z,0
2022-11-20T05:58:53.423Z,0
2022-11-20T06:03:53.345Z,0
2022-11-20T06:08:52.309Z,0
2022-11-20T06:13:50.955Z,0
2022-11-20T06:18:49.550Z,0
2022-11-20T06:23:49.401Z,0
2022-11-20T06:28:48.044Z,0
2022-11-20T06:33:48.852Z,0
2022-11-20T06:38:46.205Z,0
2022-11-20T06:43:45.848Z,0
2022-11-20T06:48:44.715Z,0
2022-11-20T06:53:44.553Z,0
2022-11-20T06:58:44.695Z,0
2022-11-20T07:03:43.007Z,0
2022-11-20T07:08:41.351Z,0
2022-11-20T07:13:40.925Z,0
2022-11-20T07:18:40.135Z,0
2022-11-20T07:23:39.569Z,0
2022-11-20T07:28:39.296Z,0
2022-11-20T07:33:38.868Z,0
2022-11-20T07:38:38.076Z,0
2022-11-20T07:43:43.901Z,0
2022-11-20T07:48:35.742Z,0
2022-11-20T07:53:35.291Z,0.01
2022-11-20T07:58:34.526Z,0.01
2022-11-20T07:59:56.970Z,0
2022-11-20T08:04:55.074Z,0.01
2022-11-20T08:09:54.867Z,0.02
2022-11-20T08:14:53.179Z,0.03
2022-11-20T08:19:51.800Z,0.03
2022-11-20T08:24:52.533Z,0.04
2022-11-20T08:29:49.734Z,0.03
2022-11-20T08:34:49.017Z,0.03
2022-11-20T08:39:48.409Z,0.05
2022-11-20T08:44:47.850Z,0.03
2022-11-20T08:49:47.543Z,0.04
2022-11-20T08:54:45.618Z,0.06
2022-11-20T09:00:15.112Z,0.07
2022-11-20T09:03:50.670Z,0.01
2022-11-20T09:08:49.691Z,0.03
2022-11-20T09:13:49.596Z,0.02
2022-11-20T09:19:35.333Z,0.05
2022-11-20T09:23:49.037Z,0.06
2022-11-20T09:28:47.957Z,0.09
2022-11-20T09:33:46.804Z,0.09
2022-11-20T09:38:46.885Z,0.07
2022-11-20T09:43:46.480Z,0.06
2022-11-20T09:48:45.742Z,0.03
2022-11-20T09:53:44.872Z,0.02
2022-11-20T09:58:30.297Z,0.05
2022-11-20T10:03:29.418Z,0.07
2022-11-20T10:08:28.623Z,0.07
2022-11-20T10:13:28.220Z,0.06
2022-11-20T10:18:27.523Z,0.05
2022-11-20T10:23:28.851Z,0.15
2022-11-20T10:28:27.076Z,0.14
2022-11-20T10:33:34.895Z,0.18
2022-11-20T10:38:25.482Z,0.19
2022-11-20T10:43:25.449Z,0.23
2022-11-20T10:48:24.179Z,0.17
2022-11-20T10:53:23.634Z,0.12
2022-11-20T10:58:23.931Z,0.12
2022-11-20T10:59:44.117Z,0.07
2022-11-20T11:04:43.293Z,0.06
2022-11-20T11:09:41.893Z,0.1
2022-11-20T11:14:40.982Z,0.16
2022-11-20T11:19:40.140Z,0.14
2022-11-20T11:24:45.600Z,0.18
2022-11-20T11:29:39.597Z,0.26
2022-11-20T11:34:39.677Z,0.25
2022-11-20T11:39:38.667Z,0.19
2022-11-20T11:44:38.687Z,0.18
2022-11-20T11:49:37.769Z,0.17
2022-11-20T11:54:37.889Z,0.15
2022-11-20T11:58:54.850Z,0.13
2022-11-20T12:03:53.994Z,0.18
2022-11-20T12:08:53.526Z,0.2
2022-11-20T12:13:53.210Z,0.2
2022-11-20T12:18:52.144Z,0.21
2022-11-20T12:23:53.297Z,0.21
2022-11-20T12:28:53.004Z,0.16
2022-11-20T12:33:53.131Z,0.15
2022-11-20T12:38:50.152Z,0.15
2022-11-20T12:43:49.541Z,0.19
2022-11-20T12:48:49.257Z,0.2
2022-11-20T12:53:47.667Z,0.19
2022-11-20T12:58:47.466Z,0.18
2022-11-20T13:03:46.465Z,0.17
2022-11-20T13:08:45.189Z,0.12
2022-11-20T13:13:44.565Z,0.11
2022-11-20T13:18:44.206Z,0.09
2022-11-20T13:23:43.562Z,0.07
2022-11-20T13:28:41.914Z,0.08
2022-11-20T13:33:40.523Z,0.05
2022-11-20T13:38:39.503Z,0.03
2022-11-20T13:43:39.431Z,0.08
2022-11-20T13:48:38.356Z,0.09
2022-11-20T13:53:37.119Z,0.1
2022-11-20T13:58:35.858Z,0.08
2022-11-20T14:04:09.071Z,0.07
2022-11-20T14:08:33.504Z,0.08
2022-11-20T14:13:33.427Z,0.06
2022-11-20T14:18:32.002Z,0.05
2022-11-20T14:23:33.523Z,0.04
2022-11-20T14:28:30.578Z,0.03
2022-11-20T14:33:28.926Z,0.04
2022-11-20T14:38:27.766Z,0.04
2022-11-20T14:43:26.833Z,0.03
2022-11-20T14:48:25.875Z,0.02
2022-11-20T14:53:25.815Z,0.02
2022-11-20T14:58:23.816Z,0.02
2022-11-20T14:59:44.086Z,0.01
2022-11-20T15:04:43.374Z,0.01
2022-11-20T15:09:42.371Z,0.01
2022-11-20T15:14:42.308Z,0.01
2022-11-20T15:19:40.589Z,0.01
2022-11-20T15:24:40.291Z,0
2022-11-20T15:29:39.246Z,0
2022-11-20T15:34:38.562Z,0
2022-11-20T15:39:37.930Z,0
2022-11-20T15:44:39.472Z,0
2022-11-20T15:49:38.179Z,0
2022-11-20T15:54:36.500Z,0
2022-11-20T15:59:03.396Z,0
2022-11-20T16:04:03.121Z,0
2022-11-20T16:09:02.333Z,0
2022-11-20T16:14:01.650Z,0
2022-11-20T16:19:01.392Z,0
2022-11-20T16:24:00.680Z,0
2022-11-20T16:28:59.857Z,0
2022-11-20T16:33:59.524Z,0
2022-11-20T16:38:59.035Z,0
2022-11-20T16:43:57.906Z,0
2022-11-20T16:48:57.018Z,0
2022-11-20T16:53:56.234Z,0
2022-11-20T16:58:55.350Z,0
2022-11-20T17:03:56.024Z,0
2022-11-20T17:08:54.294Z,0
2022-11-20T17:13:54.546Z,0
2022-11-20T17:18:58.272Z,0
2022-11-20T17:23:52.922Z,0
2022-11-20T17:28:51.693Z,0
2022-11-20T17:33:50.437Z,0
2022-11-20T17:38:48.528Z,0
2022-11-20T17:43:48.075Z,0
2022-11-20T17:48:47.558Z,0
2022-11-20T17:53:46.329Z,0
2022-11-20T17:58:45.132Z,0
2022-11-20T18:03:44.114Z,0
2022-11-20T18:08:44.094Z,0
2022-11-20T18:13:50.269Z,0
2022-11-20T18:18:41.799Z,0
2022-11-20T18:23:41.455Z,0
2022-11-20T18:28:41.258Z,0
2022-11-20T18:33:40.404Z,0
2022-11-20T18:38:38.814Z,0
2022-11-20T18:43:38.336Z,0
2022-11-20T18:48:36.900Z,0
2022-11-20T18:53:36.289Z,0
2022-11-20T18:58:35.547Z,0
2022-11-20T18:59:56.351Z,0
2022-11-20T19:04:55.318Z,0
2022-11-20T19:10:03.844Z,0
2022-11-20T19:14:55.379Z,0
2022-11-20T19:19:54.030Z,0
2022-11-20T19:24:53.173Z,0
2022-11-20T19:29:52.137Z,0
2022-11-20T19:34:50.794Z,0
2022-11-20T19:39:51.252Z,0
2022-11-20T19:44:49.417Z,0
2022-11-20T19:49:48.968Z,0
2022-11-20T19:54:48.977Z,0
2022-11-20T19:59:34.240Z,0
2022-11-20T20:04:14.103Z,0
2022-11-20T20:09:12.198Z,0
2022-11-20T20:14:13.756Z,0
2022-11-20T20:19:10.920Z,0
2022-11-20T20:24:08.624Z,0
2022-11-20T20:29:08.018Z,0
2022-11-20T20:34:08.160Z,0
2022-11-20T20:39:06.423Z,0
2022-11-20T20:44:05.654Z,0
2022-11-20T20:49:04.543Z,0
2022-11-20T20:54:04.227Z,0
2022-11-20T20:58:53.495Z,0
2022-11-20T21:03:52.603Z,0
2022-11-20T21:08:51.433Z,0
2022-11-20T21:13:50.722Z,0
2022-11-20T21:18:48.005Z,0
2022-11-20T21:23:47.879Z,0
2022-11-20T21:28:46.822Z,0
2022-11-20T21:33:46.881Z,0
2022-11-20T21:38:45.611Z,0
2022-11-20T21:43:44.423Z,0
2022-11-20T21:48:43.133Z,0
2022-11-20T21:53:42.847Z,0
2022-11-20T21:58:43.179Z,0
2022-11-20T22:03:41.713Z,0
2022-11-20T22:08:40.216Z,0
2022-11-20T22:13:39.455Z,0
2022-11-20T22:18:38.791Z,0
2022-11-20T22:23:37.820Z,0
2022-11-20T22:28:37.133Z,0
2022-11-20T22:33:35.885Z,0
2022-11-20T22:38:42.006Z,0
2022-11-20T22:43:35.465Z,0
2022-11-20T22:48:33.772Z,0
2022-11-20T22:53:33.324Z,0
2022-11-20T22:58:32.487Z,0
2022-11-20T23:03:32.111Z,0
2022-11-20T23:08:31.505Z,0
2022-11-20T23:13:30.184Z,0
2022-11-20T23:18:29.243Z,0
2022-11-20T23:23:28.673Z,0
2022-11-20T23:28:27.704Z,0
2022-11-20T23:33:27.400Z,0
2022-11-20T23:38:25.393Z,0
2022-11-20T23:43:24.931Z,0
2022-11-20T23:48:23.830Z,0
2022-11-20T23:53:23.746Z,0
2022-11-20T23:58:30.934Z,0
